sensor_id;sensor_type;location;lat;lon;timestamp;temperature;humidity
25440;DHT22;13365;52.208;5.488;2022-11-18T00:00:48;13.80;94.80
25440;DHT22;13365;52.208;5.488;2022-11-18T00:03:14;13.80;94.80
25440;DHT22;13365;52.208;5.488;2022-11-18T00:05:40;13.80;94.80
25440;DHT22;13365;52.208;5.488;2022-11-18T00:08:05;13.80;94.90
25440;DHT22;13365;52.208;5.488;2022-11-18T00:10:31;13.90;94.70
25440;DHT22;13365;52.208;5.488;2022-11-18T00:12:57;13.60;95.00
25440;DHT22;13365;52.208;5.488;2022-11-18T00:15:41;13.70;95.10
25440;DHT22;13365;52.208;5.488;2022-11-18T00:18:06;13.50;95.20
25440;DHT22;13365;52.208;5.488;2022-11-18T00:20:33;13.50;95.30
25440;DHT22;13365;52.208;5.488;2022-11-18T00:22:59;13.60;95.20
25440;DHT22;13365;52.208;5.488;2022-11-18T00:25:25;13.70;95.10
25440;DHT22;13365;52.208;5.488;2022-11-18T00:27:50;13.70;95.00
25440;DHT22;13365;52.208;5.488;2022-11-18T00:30:16;13.80;95.00
25440;DHT22;13365;52.208;5.488;2022-11-18T00:32:42;13.80;94.80
25440;DHT22;13365;52.208;5.488;2022-11-18T00:35:07;13.70;95.00
25440;DHT22;13365;52.208;5.488;2022-11-18T00:37:33;13.70;95.00
25440;DHT22;13365;52.208;5.488;2022-11-18T00:39:58;13.70;95.10
25440;DHT22;13365;52.208;5.488;2022-11-18T00:42:24;13.70;95.00
25440;DHT22;13365;52.208;5.488;2022-11-18T00:45:08;13.70;94.90
25440;DHT22;13365;52.208;5.488;2022-11-18T00:47:34;13.70;95.00
25440;DHT22;13365;52.208;5.488;2022-11-18T00:49:59;13.60;95.10
25440;DHT22;13365;52.208;5.488;2022-11-18T00:52:25;13.70;95.00
25440;DHT22;13365;52.208;5.488;2022-11-18T00:54:50;13.80;94.80
25440;DHT22;13365;52.208;5.488;2022-11-18T00:57:16;13.90;94.60
25440;DHT22;13365;52.208;5.488;2022-11-18T00:59:41;13.90;94.50
25440;DHT22;13365;52.208;5.488;2022-11-18T01:02:07;13.90;94.50
25440;DHT22;13365;52.208;5.488;2022-11-18T01:04:32;13.90;94.60
25440;DHT22;13365;52.208;5.488;2022-11-18T01:06:58;13.90;94.60
25440;DHT22;13365;52.208;5.488;2022-11-18T01:09:23;13.80;94.60
25440;DHT22;13365;52.208;5.488;2022-11-18T01:11:49;13.80;94.70
25440;DHT22;13365;52.208;5.488;2022-11-18T01:14:33;13.70;94.60
25440;DHT22;13365;52.208;5.488;2022-11-18T01:16:59;13.70;94.60
25440;DHT22;13365;52.208;5.488;2022-11-18T01:19:25;13.70;94.70
25440;DHT22;13365;52.208;5.488;2022-11-18T01:21:50;13.70;94.70
25440;DHT22;13365;52.208;5.488;2022-11-18T01:24:16;13.60;94.70
25440;DHT22;13365;52.208;5.488;2022-11-18T01:26:41;13.50;95.00
25440;DHT22;13365;52.208;5.488;2022-11-18T01:29:07;13.50;95.30
25440;DHT22;13365;52.208;5.488;2022-11-18T01:31:33;13.50;95.30
25440;DHT22;13365;52.208;5.488;2022-11-18T01:33:59;13.50;95.10
25440;DHT22;13365;52.208;5.488;2022-11-18T01:36:26;13.60;95.00
25440;DHT22;13365;52.208;5.488;2022-11-18T01:38:52;13.70;94.90
25440;DHT22;13365;52.208;5.488;2022-11-18T01:41:21;13.70;94.80
25440;DHT22;13365;52.208;5.488;2022-11-18T01:44:01;13.80;94.70
25440;DHT22;13365;52.208;5.488;2022-11-18T01:46:30;13.70;94.60
25440;DHT22;13365;52.208;5.488;2022-11-18T01:49:06;13.70;94.70
25440;DHT22;13365;52.208;5.488;2022-11-18T01:51:38;13.80;94.70
25440;DHT22;13365;52.208;5.488;2022-11-18T01:54:08;13.70;94.70
25440;DHT22;13365;52.208;5.488;2022-11-18T01:56:41;13.60;94.70
25440;DHT22;13365;52.208;5.488;2022-11-18T01:59:14;13.70;94.80
25440;DHT22;13365;52.208;5.488;2022-11-18T02:01:41;13.70;94.70
25440;DHT22;13365;52.208;5.488;2022-11-18T02:04:06;13.70;94.90
25440;DHT22;13365;52.208;5.488;2022-11-18T02:06:33;13.70;94.90
25440;DHT22;13365;52.208;5.488;2022-11-18T02:08:59;13.60;95.00
25440;DHT22;13365;52.208;5.488;2022-11-18T02:11:25;13.70;94.90
25440;DHT22;13365;52.208;5.488;2022-11-18T02:14:10;13.70;94.90
25440;DHT22;13365;52.208;5.488;2022-11-18T02:17:08;13.70;94.70
25440;DHT22;13365;52.208;5.488;2022-11-18T02:25:06;13.70;94.60
25440;DHT22;13365;52.208;5.488;2022-11-18T02:31:10;13.70;94.50
25440;DHT22;13365;52.208;5.488;2022-11-18T02:33:48;13.70;94.50
25440;DHT22;13365;52.208;5.488;2022-11-18T02:36:22;13.60;94.60
25440;DHT22;13365;52.208;5.488;2022-11-18T02:38:56;13.60;94.70
25440;DHT22;13365;52.208;5.488;2022-11-18T02:41:25;13.70;95.00
25440;DHT22;13365;52.208;5.488;2022-11-18T02:43:54;13.70;94.30
25440;DHT22;13365;52.208;5.488;2022-11-18T02:46:26;13.70;94.40
25440;DHT22;13365;52.208;5.488;2022-11-18T02:48:55;13.80;94.30
25440;DHT22;13365;52.208;5.488;2022-11-18T02:51:26;13.80;94.40
25440;DHT22;13365;52.208;5.488;2022-11-18T02:53:54;13.70;94.30
25440;DHT22;13365;52.208;5.488;2022-11-18T02:56:22;13.70;94.40
25440;DHT22;13365;52.208;5.488;2022-11-18T02:58:48;13.70;94.50
25440;DHT22;13365;52.208;5.488;2022-11-18T03:01:18;13.60;94.60
25440;DHT22;13365;52.208;5.488;2022-11-18T03:03:45;13.70;94.50
25440;DHT22;13365;52.208;5.488;2022-11-18T03:11:31;13.60;94.70
25440;DHT22;13365;52.208;5.488;2022-11-18T03:14:07;13.70;94.80
25440;DHT22;13365;52.208;5.488;2022-11-18T03:16:40;13.70;94.70
25440;DHT22;13365;52.208;5.488;2022-11-18T03:20:09;13.70;94.70
25440;DHT22;13365;52.208;5.488;2022-11-18T03:22:22;13.70;94.80
25440;DHT22;13365;52.208;5.488;2022-11-18T03:25:05;13.80;94.90
25440;DHT22;13365;52.208;5.488;2022-11-18T03:27:58;13.70;94.80
25440;DHT22;13365;52.208;5.488;2022-11-18T03:30:24;13.70;94.90
25440;DHT22;13365;52.208;5.488;2022-11-18T03:32:56;13.70;94.80
25440;DHT22;13365;52.208;5.488;2022-11-18T03:35:26;13.70;95.00
25440;DHT22;13365;52.208;5.488;2022-11-18T03:37:58;13.80;94.90
25440;DHT22;13365;52.208;5.488;2022-11-18T03:40:27;13.90;94.80
25440;DHT22;13365;52.208;5.488;2022-11-18T03:43:09;13.90;94.60
25440;DHT22;13365;52.208;5.488;2022-11-18T03:45:41;14.00;94.60
25440;DHT22;13365;52.208;5.488;2022-11-18T03:48:26;13.90;94.60
25440;DHT22;13365;52.208;5.488;2022-11-18T03:51:01;13.90;94.70
25440;DHT22;13365;52.208;5.488;2022-11-18T03:53:30;14.00;94.70
25440;DHT22;13365;52.208;5.488;2022-11-18T03:56:11;14.00;94.70
25440;DHT22;13365;52.208;5.488;2022-11-18T03:58:46;14.00;94.70
25440;DHT22;13365;52.208;5.488;2022-11-18T04:01:23;14.00;94.80
25440;DHT22;13365;52.208;5.488;2022-11-18T04:03:49;14.10;94.70
25440;DHT22;13365;52.208;5.488;2022-11-18T04:06:29;14.10;94.70
25440;DHT22;13365;52.208;5.488;2022-11-18T04:08:58;14.00;94.70
25440;DHT22;13365;52.208;5.488;2022-11-18T04:11:29;14.00;94.80
25440;DHT22;13365;52.208;5.488;2022-11-18T04:14:25;14.00;94.90
25440;DHT22;13365;52.208;5.488;2022-11-18T04:16:51;14.10;94.90
25440;DHT22;13365;52.208;5.488;2022-11-18T04:19:17;14.10;94.80
25440;DHT22;13365;52.208;5.488;2022-11-18T04:21:47;14.10;94.80
25440;DHT22;13365;52.208;5.488;2022-11-18T04:24:12;14.00;94.90
25440;DHT22;13365;52.208;5.488;2022-11-18T04:26:38;14.00;94.90
25440;DHT22;13365;52.208;5.488;2022-11-18T04:29:03;14.10;94.80
25440;DHT22;13365;52.208;5.488;2022-11-18T04:31:29;14.10;94.70
25440;DHT22;13365;52.208;5.488;2022-11-18T04:33:55;14.20;94.60
25440;DHT22;13365;52.208;5.488;2022-11-18T04:36:20;14.20;94.50
25440;DHT22;13365;52.208;5.488;2022-11-18T04:38:46;14.10;94.40
25440;DHT22;13365;52.208;5.488;2022-11-18T04:41:11;14.10;94.50
25440;DHT22;13365;52.208;5.488;2022-11-18T04:43:37;14.10;94.30
25440;DHT22;13365;52.208;5.488;2022-11-18T04:46:02;14.10;94.30
25440;DHT22;13365;52.208;5.488;2022-11-18T04:48:28;14.20;94.30
25440;DHT22;13365;52.208;5.488;2022-11-18T04:50:56;14.20;94.20
25440;DHT22;13365;52.208;5.488;2022-11-18T04:53:21;14.20;94.10
25440;DHT22;13365;52.208;5.488;2022-11-18T04:55:47;14.10;94.10
25440;DHT22;13365;52.208;5.488;2022-11-18T04:58:12;14.10;94.20
25440;DHT22;13365;52.208;5.488;2022-11-18T05:00:38;14.10;94.10
25440;DHT22;13365;52.208;5.488;2022-11-18T05:03:04;14.10;94.10
25440;DHT22;13365;52.208;5.488;2022-11-18T05:05:29;14.00;94.10
25440;DHT22;13365;52.208;5.488;2022-11-18T05:07:55;14.00;94.20
25440;DHT22;13365;52.208;5.488;2022-11-18T05:10:20;14.10;94.20
25440;DHT22;13365;52.208;5.488;2022-11-18T05:12:46;14.00;94.10
25440;DHT22;13365;52.208;5.488;2022-11-18T05:15:18;14.00;94.10
25440;DHT22;13365;52.208;5.488;2022-11-18T05:17:44;14.00;94.10
25440;DHT22;13365;52.208;5.488;2022-11-18T05:20:10;13.90;94.40
25440;DHT22;13365;52.208;5.488;2022-11-18T05:22:36;13.90;94.10
25440;DHT22;13365;52.208;5.488;2022-11-18T05:25:03;14.00;94.20
25440;DHT22;13365;52.208;5.488;2022-11-18T05:27:28;13.90;94.20
25440;DHT22;13365;52.208;5.488;2022-11-18T05:29:54;14.00;94.20
25440;DHT22;13365;52.208;5.488;2022-11-18T05:32:19;13.90;94.30
25440;DHT22;13365;52.208;5.488;2022-11-18T05:34:45;14.00;94.30
25440;DHT22;13365;52.208;5.488;2022-11-18T05:37:11;13.90;94.30
25440;DHT22;13365;52.208;5.488;2022-11-18T05:39:36;13.90;94.30
25440;DHT22;13365;52.208;5.488;2022-11-18T05:42:03;13.90;94.30
25440;DHT22;13365;52.208;5.488;2022-11-18T05:44:48;13.90;94.40
25440;DHT22;13365;52.208;5.488;2022-11-18T05:47:16;13.80;94.50
25440;DHT22;13365;52.208;5.488;2022-11-18T05:49:42;13.80;94.70
25440;DHT22;13365;52.208;5.488;2022-11-18T05:52:07;13.70;94.90
25440;DHT22;13365;52.208;5.488;2022-11-18T05:54:33;13.70;95.00
25440;DHT22;13365;52.208;5.488;2022-11-18T05:56:58;13.70;95.20
25440;DHT22;13365;52.208;5.488;2022-11-18T05:59:24;13.70;95.10
25440;DHT22;13365;52.208;5.488;2022-11-18T06:02:15;13.70;95.10
25440;DHT22;13365;52.208;5.488;2022-11-18T06:04:48;13.80;95.00
25440;DHT22;13365;52.208;5.488;2022-11-18T06:07:24;13.70;94.90
25440;DHT22;13365;52.208;5.488;2022-11-18T06:09:55;13.70;94.90
25440;DHT22;13365;52.208;5.488;2022-11-18T06:12:25;13.70;95.10
25440;DHT22;13365;52.208;5.488;2022-11-18T06:14:58;13.60;95.00
25440;DHT22;13365;52.208;5.488;2022-11-18T06:17:28;13.70;95.00
25440;DHT22;13365;52.208;5.488;2022-11-18T06:19:56;13.70;95.00
25440;DHT22;13365;52.208;5.488;2022-11-18T06:22:22;13.70;94.90
25440;DHT22;13365;52.208;5.488;2022-11-18T06:24:48;13.70;94.70
25440;DHT22;13365;52.208;5.488;2022-11-18T06:27:14;13.70;94.80
25440;DHT22;13365;52.208;5.488;2022-11-18T06:29:39;13.70;94.80
25440;DHT22;13365;52.208;5.488;2022-11-18T06:32:05;13.70;94.90
25440;DHT22;13365;52.208;5.488;2022-11-18T06:34:31;13.70;94.90
25440;DHT22;13365;52.208;5.488;2022-11-18T06:36:56;13.70;94.80
25440;DHT22;13365;52.208;5.488;2022-11-18T06:39:22;13.60;94.80
25440;DHT22;13365;52.208;5.488;2022-11-18T06:41:47;13.70;94.80
25440;DHT22;13365;52.208;5.488;2022-11-18T06:44:13;13.60;94.80
25440;DHT22;13365;52.208;5.488;2022-11-18T06:46:39;13.60;95.00
25440;DHT22;13365;52.208;5.488;2022-11-18T06:49:19;13.40;94.90
25440;DHT22;13365;52.208;5.488;2022-11-18T06:51:45;13.40;95.20
25440;DHT22;13365;52.208;5.488;2022-11-18T06:54:11;13.50;95.00
25440;DHT22;13365;52.208;5.488;2022-11-18T06:56:36;13.60;95.00
25440;DHT22;13365;52.208;5.488;2022-11-18T06:59:02;13.60;95.00
25440;DHT22;13365;52.208;5.488;2022-11-18T07:01:31;13.60;94.90
25440;DHT22;13365;52.208;5.488;2022-11-18T07:03:58;13.60;94.80
25440;DHT22;13365;52.208;5.488;2022-11-18T07:06:28;13.60;94.80
25440;DHT22;13365;52.208;5.488;2022-11-18T07:08:54;13.60;94.90
25440;DHT22;13365;52.208;5.488;2022-11-18T07:11:23;13.60;94.80
25440;DHT22;13365;52.208;5.488;2022-11-18T07:13:49;13.60;94.60
25440;DHT22;13365;52.208;5.488;2022-11-18T07:16:16;13.70;94.60
25440;DHT22;13365;52.208;5.488;2022-11-18T07:18:44;13.70;94.60
25440;DHT22;13365;52.208;5.488;2022-11-18T07:21:23;13.60;94.60
25440;DHT22;13365;52.208;5.488;2022-11-18T07:23:50;13.60;94.70
25440;DHT22;13365;52.208;5.488;2022-11-18T07:26:16;13.60;94.50
25440;DHT22;13365;52.208;5.488;2022-11-18T07:28:42;13.70;94.90
25440;DHT22;13365;52.208;5.488;2022-11-18T07:31:08;13.70;94.40
25440;DHT22;13365;52.208;5.488;2022-11-18T07:33:35;13.70;94.40
25440;DHT22;13365;52.208;5.488;2022-11-18T07:36:12;13.70;94.60
25440;DHT22;13365;52.208;5.488;2022-11-18T07:38:38;13.70;94.70
25440;DHT22;13365;52.208;5.488;2022-11-18T07:41:12;13.50;94.90
25440;DHT22;13365;52.208;5.488;2022-11-18T07:43:39;13.50;95.20
25440;DHT22;13365;52.208;5.488;2022-11-18T07:46:19;13.50;95.30
25440;DHT22;13365;52.208;5.488;2022-11-18T07:48:47;13.60;95.30
25440;DHT22;13365;52.208;5.488;2022-11-18T07:51:15;13.70;95.30
25440;DHT22;13365;52.208;5.488;2022-11-18T07:53:42;13.70;95.40
25440;DHT22;13365;52.208;5.488;2022-11-18T07:56:08;13.70;95.60
25440;DHT22;13365;52.208;5.488;2022-11-18T07:58:34;13.60;95.70
25440;DHT22;13365;52.208;5.488;2022-11-18T08:01:14;13.70;95.80
25440;DHT22;13365;52.208;5.488;2022-11-18T08:03:40;13.60;96.00
25440;DHT22;13365;52.208;5.488;2022-11-18T08:06:08;13.60;96.20
25440;DHT22;13365;52.208;5.488;2022-11-18T08:08:35;13.70;96.30
25440;DHT22;13365;52.208;5.488;2022-11-18T08:11:02;13.90;96.20
25440;DHT22;13365;52.208;5.488;2022-11-18T08:13:30;13.90;96.30
25440;DHT22;13365;52.208;5.488;2022-11-18T08:15:56;14.00;96.10
25440;DHT22;13365;52.208;5.488;2022-11-18T08:18:22;13.90;96.30
25440;DHT22;13365;52.208;5.488;2022-11-18T08:20:47;13.70;96.30
25440;DHT22;13365;52.208;5.488;2022-11-18T08:23:14;13.80;96.60
25440;DHT22;13365;52.208;5.488;2022-11-18T08:25:40;13.80;96.50
25440;DHT22;13365;52.208;5.488;2022-11-18T08:28:07;13.80;96.50
25440;DHT22;13365;52.208;5.488;2022-11-18T08:30:33;13.80;96.70
25440;DHT22;13365;52.208;5.488;2022-11-18T08:32:59;14.00;96.80
25440;DHT22;13365;52.208;5.488;2022-11-18T08:35:28;14.20;96.30
25440;DHT22;13365;52.208;5.488;2022-11-18T08:37:54;14.30;95.90
25440;DHT22;13365;52.208;5.488;2022-11-18T08:40:20;14.40;95.90
25440;DHT22;13365;52.208;5.488;2022-11-18T08:42:45;14.40;96.00
25440;DHT22;13365;52.208;5.488;2022-11-18T08:45:11;14.50;96.10
25440;DHT22;13365;52.208;5.488;2022-11-18T08:47:37;14.60;95.70
25440;DHT22;13365;52.208;5.488;2022-11-18T08:50:07;14.60;95.90
25440;DHT22;13365;52.208;5.488;2022-11-18T08:52:34;14.80;95.50
25440;DHT22;13365;52.208;5.488;2022-11-18T08:55:00;14.80;95.10
25440;DHT22;13365;52.208;5.488;2022-11-18T08:57:26;14.80;95.30
25440;DHT22;13365;52.208;5.488;2022-11-18T08:59:52;14.70;95.40
25440;DHT22;13365;52.208;5.488;2022-11-18T09:02:19;14.90;95.70
25440;DHT22;13365;52.208;5.488;2022-11-18T09:04:46;14.90;95.50
25440;DHT22;13365;52.208;5.488;2022-11-18T09:07:12;14.90;95.50
25440;DHT22;13365;52.208;5.488;2022-11-18T09:09:38;14.90;95.20
25440;DHT22;13365;52.208;5.488;2022-11-18T09:12:03;14.90;95.10
25440;DHT22;13365;52.208;5.488;2022-11-18T09:14:29;14.80;94.90
25440;DHT22;13365;52.208;5.488;2022-11-18T09:16:55;15.00;95.00
25440;DHT22;13365;52.208;5.488;2022-11-18T09:19:20;15.10;94.80
25440;DHT22;13365;52.208;5.488;2022-11-18T09:21:46;15.00;94.50
25440;DHT22;13365;52.208;5.488;2022-11-18T09:24:11;15.00;94.70
25440;DHT22;13365;52.208;5.488;2022-11-18T09:26:37;15.10;94.70
25440;DHT22;13365;52.208;5.488;2022-11-18T09:29:03;15.20;94.40
25440;DHT22;13365;52.208;5.488;2022-11-18T09:31:29;15.10;94.60
25440;DHT22;13365;52.208;5.488;2022-11-18T09:33:54;15.20;94.80
25440;DHT22;13365;52.208;5.488;2022-11-18T09:36:22;15.20;94.60
25440;DHT22;13365;52.208;5.488;2022-11-18T09:38:48;15.00;94.80
25440;DHT22;13365;52.208;5.488;2022-11-18T09:49:40;15.30;94.80
25440;DHT22;13365;52.208;5.488;2022-11-18T09:52:20;15.20;94.60
25440;DHT22;13365;52.208;5.488;2022-11-18T09:54:46;15.30;94.60
25440;DHT22;13365;52.208;5.488;2022-11-18T09:57:14;15.40;94.30
25440;DHT22;13365;52.208;5.488;2022-11-18T09:59:41;15.50;94.50
25440;DHT22;13365;52.208;5.488;2022-11-18T10:04:38;15.70;93.80
25440;DHT22;13365;52.208;5.488;2022-11-18T10:07:14;15.60;93.90
25440;DHT22;13365;52.208;5.488;2022-11-18T10:09:40;15.30;94.90
25440;DHT22;13365;52.208;5.488;2022-11-18T10:15:20;15.70;94.20
25440;DHT22;13365;52.208;5.488;2022-11-18T10:23:18;16.00;94.20
25440;DHT22;13365;52.208;5.488;2022-11-18T10:25:45;16.30;94.00
25440;DHT22;13365;52.208;5.488;2022-11-18T10:28:20;16.30;93.60
25440;DHT22;13365;52.208;5.488;2022-11-18T10:30:46;16.40;93.60
25440;DHT22;13365;52.208;5.488;2022-11-18T10:35:47;16.60;92.80
25440;DHT22;13365;52.208;5.488;2022-11-18T10:41:03;16.50;92.40
25440;DHT22;13365;52.208;5.488;2022-11-18T10:43:43;16.50;92.70
25440;DHT22;13365;52.208;5.488;2022-11-18T10:46:22;16.50;92.60
25440;DHT22;13365;52.208;5.488;2022-11-18T10:51:36;16.50;92.70
25440;DHT22;13365;52.208;5.488;2022-11-18T10:59:35;16.60;92.10
25440;DHT22;13365;52.208;5.488;2022-11-18T11:02:20;16.70;92.20
25440;DHT22;13365;52.208;5.488;2022-11-18T11:04:50;16.70;92.40
25440;DHT22;13365;52.208;5.488;2022-11-18T11:12:33;16.70;91.80
25440;DHT22;13365;52.208;5.488;2022-11-18T11:15:02;16.60;91.80
25440;DHT22;13365;52.208;5.488;2022-11-18T11:17:33;16.70;91.90
25440;DHT22;13365;52.208;5.488;2022-11-18T11:22:37;16.80;91.70
25440;DHT22;13365;52.208;5.488;2022-11-18T11:25:17;16.70;91.90
25440;DHT22;13365;52.208;5.488;2022-11-18T11:27:48;16.50;92.40
25440;DHT22;13365;52.208;5.488;2022-11-18T11:30:22;16.50;92.40
25440;DHT22;13365;52.208;5.488;2022-11-18T11:35:45;16.60;92.40
25440;DHT22;13365;52.208;5.488;2022-11-18T11:38:42;16.60;92.10
25440;DHT22;13365;52.208;5.488;2022-11-18T11:41:22;16.50;92.20
25440;DHT22;13365;52.208;5.488;2022-11-18T11:47:09;16.70;92.70
25440;DHT22;13365;52.208;5.488;2022-11-18T11:50:27;16.70;92.10
25440;DHT22;13365;52.208;5.488;2022-11-18T12:01:14;17.20;92.20
25440;DHT22;13365;52.208;5.488;2022-11-18T12:03:45;17.10;92.20
25440;DHT22;13365;52.208;5.488;2022-11-18T12:06:11;17.20;92.30
25440;DHT22;13365;52.208;5.488;2022-11-18T12:09:04;17.20;92.10
25440;DHT22;13365;52.208;5.488;2022-11-18T12:11:55;17.30;91.80
25440;DHT22;13365;52.208;5.488;2022-11-18T12:14:34;17.30;91.90
25440;DHT22;13365;52.208;5.488;2022-11-18T12:17:22;17.40;91.50
25440;DHT22;13365;52.208;5.488;2022-11-18T12:19:49;17.40;91.30
25440;DHT22;13365;52.208;5.488;2022-11-18T12:22:15;17.30;91.40
25440;DHT22;13365;52.208;5.488;2022-11-18T12:24:41;17.20;91.30
25440;DHT22;13365;52.208;5.488;2022-11-18T12:29:54;16.90;91.60
25440;DHT22;13365;52.208;5.488;2022-11-18T12:32:39;16.90;91.70
25440;DHT22;13365;52.208;5.488;2022-11-18T12:35:24;16.80;91.70
25440;DHT22;13365;52.208;5.488;2022-11-18T12:40:43;16.90;91.80
25440;DHT22;13365;52.208;5.488;2022-11-18T12:48:53;17.00;91.50
25440;DHT22;13365;52.208;5.488;2022-11-18T12:53:52;17.10;91.70
25440;DHT22;13365;52.208;5.488;2022-11-18T12:58:52;17.30;91.70
25440;DHT22;13365;52.208;5.488;2022-11-18T13:01:21;17.40;91.50
25440;DHT22;13365;52.208;5.488;2022-11-18T13:03:47;17.50;91.40
25440;DHT22;13365;52.208;5.488;2022-11-18T13:06:29;17.50;91.40
25440;DHT22;13365;52.208;5.488;2022-11-18T13:09:04;17.50;91.60
25440;DHT22;13365;52.208;5.488;2022-11-18T13:12:01;17.60;91.30
25440;DHT22;13365;52.208;5.488;2022-11-18T13:17:28;17.90;91.10
25440;DHT22;13365;52.208;5.488;2022-11-18T13:22:58;17.60;91.20
25440;DHT22;13365;52.208;5.488;2022-11-18T13:25:43;17.40;91.30
25440;DHT22;13365;52.208;5.488;2022-11-18T13:33:40;17.40;91.60
25440;DHT22;13365;52.208;5.488;2022-11-18T13:36:22;17.00;91.90
25440;DHT22;13365;52.208;5.488;2022-11-18T13:39:03;17.00;92.40
25440;DHT22;13365;52.208;5.488;2022-11-18T13:41:30;17.00;92.30
25440;DHT22;13365;52.208;5.488;2022-11-18T13:44:24;17.20;92.20
25440;DHT22;13365;52.208;5.488;2022-11-18T13:47:37;17.20;92.30
25440;DHT22;13365;52.208;5.488;2022-11-18T13:52:40;17.30;92.30
25440;DHT22;13365;52.208;5.488;2022-11-18T13:55:20;17.40;91.80
25440;DHT22;13365;52.208;5.488;2022-11-18T13:57:52;17.40;91.50
25440;DHT22;13365;52.208;5.488;2022-11-18T14:00:26;17.30;91.40
25440;DHT22;13365;52.208;5.488;2022-11-18T14:02:58;17.10;91.60
25440;DHT22;13365;52.208;5.488;2022-11-18T14:05:25;17.00;91.80
25440;DHT22;13365;52.208;5.488;2022-11-18T14:08:21;16.80;92.20
25440;DHT22;13365;52.208;5.488;2022-11-18T14:10:48;16.80;92.70
25440;DHT22;13365;52.208;5.488;2022-11-18T14:13:30;16.70;92.40
25440;DHT22;13365;52.208;5.488;2022-11-18T14:18:45;16.80;91.50
25440;DHT22;13365;52.208;5.488;2022-11-18T14:21:11;16.90;91.60
25440;DHT22;13365;52.208;5.488;2022-11-18T14:23:41;17.00;91.20
25440;DHT22;13365;52.208;5.488;2022-11-18T14:26:08;17.00;91.00
25440;DHT22;13365;52.208;5.488;2022-11-18T14:28:35;16.90;91.10
25440;DHT22;13365;52.208;5.488;2022-11-18T14:33:34;16.90;91.20
25440;DHT22;13365;52.208;5.488;2022-11-18T14:36:02;17.00;91.00
25440;DHT22;13365;52.208;5.488;2022-11-18T14:38:50;17.00;91.40
25440;DHT22;13365;52.208;5.488;2022-11-18T14:41:17;16.80;90.90
25440;DHT22;13365;52.208;5.488;2022-11-18T14:44:03;16.80;90.70
25440;DHT22;13365;52.208;5.488;2022-11-18T14:46:29;16.90;90.70
25440;DHT22;13365;52.208;5.488;2022-11-18T14:48:55;16.80;90.70
25440;DHT22;13365;52.208;5.488;2022-11-18T14:51:21;16.70;90.70
25440;DHT22;13365;52.208;5.488;2022-11-18T14:53:46;16.70;90.70
25440;DHT22;13365;52.208;5.488;2022-11-18T14:56:21;16.70;90.80
25440;DHT22;13365;52.208;5.488;2022-11-18T14:58:48;16.60;90.70
25440;DHT22;13365;52.208;5.488;2022-11-18T15:01:14;16.50;90.70
25440;DHT22;13365;52.208;5.488;2022-11-18T15:03:39;16.50;90.80
25440;DHT22;13365;52.208;5.488;2022-11-18T15:06:16;16.40;90.70
25440;DHT22;13365;52.208;5.488;2022-11-18T15:08:43;16.30;90.70
25440;DHT22;13365;52.208;5.488;2022-11-18T15:11:09;16.30;90.90
25440;DHT22;13365;52.208;5.488;2022-11-18T15:13:36;16.20;91.00
25440;DHT22;13365;52.208;5.488;2022-11-18T15:16:19;16.20;91.20
25440;DHT22;13365;52.208;5.488;2022-11-18T15:18:47;16.10;91.30
25440;DHT22;13365;52.208;5.488;2022-11-18T15:21:13;16.10;91.40
25440;DHT22;13365;52.208;5.488;2022-11-18T15:23:39;16.00;91.50
25440;DHT22;13365;52.208;5.488;2022-11-18T15:26:15;16.00;91.60
25440;DHT22;13365;52.208;5.488;2022-11-18T15:28:42;15.90;91.70
25440;DHT22;13365;52.208;5.488;2022-11-18T15:31:07;16.00;91.80
25440;DHT22;13365;52.208;5.488;2022-11-18T15:33:33;16.00;91.70
25440;DHT22;13365;52.208;5.488;2022-11-18T15:35:58;16.00;91.70
25440;DHT22;13365;52.208;5.488;2022-11-18T15:38:24;16.00;91.70
25440;DHT22;13365;52.208;5.488;2022-11-18T15:40:49;16.10;91.80
25440;DHT22;13365;52.208;5.488;2022-11-18T15:43:15;16.10;91.80
25440;DHT22;13365;52.208;5.488;2022-11-18T15:45:42;16.20;91.90
25440;DHT22;13365;52.208;5.488;2022-11-18T15:48:08;16.20;91.80
25440;DHT22;13365;52.208;5.488;2022-11-18T15:50:33;16.20;91.80
25440;DHT22;13365;52.208;5.488;2022-11-18T15:52:59;16.20;91.90
25440;DHT22;13365;52.208;5.488;2022-11-18T15:55:24;16.20;91.90
25440;DHT22;13365;52.208;5.488;2022-11-18T15:57:50;16.20;91.90
25440;DHT22;13365;52.208;5.488;2022-11-18T16:00:15;16.20;91.90
25440;DHT22;13365;52.208;5.488;2022-11-18T16:02:41;16.20;92.00
25440;DHT22;13365;52.208;5.488;2022-11-18T16:05:07;16.20;92.50
25440;DHT22;13365;52.208;5.488;2022-11-18T16:07:32;16.20;92.10
25440;DHT22;13365;52.208;5.488;2022-11-18T16:09:58;16.30;92.00
25440;DHT22;13365;52.208;5.488;2022-11-18T16:12:46;16.20;92.00
25440;DHT22;13365;52.208;5.488;2022-11-18T16:15:13;16.30;91.90
25440;DHT22;13365;52.208;5.488;2022-11-18T16:17:57;16.20;91.90
25440;DHT22;13365;52.208;5.488;2022-11-18T16:20:24;16.20;91.80
25440;DHT22;13365;52.208;5.488;2022-11-18T16:22:50;16.30;91.80
25440;DHT22;13365;52.208;5.488;2022-11-18T16:25:19;16.30;91.70
25440;DHT22;13365;52.208;5.488;2022-11-18T16:27:45;16.20;91.90
25440;DHT22;13365;52.208;5.488;2022-11-18T16:30:11;16.20;92.00
25440;DHT22;13365;52.208;5.488;2022-11-18T16:32:57;16.20;91.90
25440;DHT22;13365;52.208;5.488;2022-11-18T16:35:23;16.20;91.90
25440;DHT22;13365;52.208;5.488;2022-11-18T16:37:49;16.20;91.90
25440;DHT22;13365;52.208;5.488;2022-11-18T16:40:15;16.30;91.80
25440;DHT22;13365;52.208;5.488;2022-11-18T16:42:41;16.30;91.80
25440;DHT22;13365;52.208;5.488;2022-11-18T16:45:06;16.30;91.80
25440;DHT22;13365;52.208;5.488;2022-11-18T16:47:32;16.20;91.80
25440;DHT22;13365;52.208;5.488;2022-11-18T16:49:58;16.20;91.90
25440;DHT22;13365;52.208;5.488;2022-11-18T16:52:23;16.20;92.00
25440;DHT22;13365;52.208;5.488;2022-11-18T16:54:49;16.10;92.00
25440;DHT22;13365;52.208;5.488;2022-11-18T16:57:14;16.10;92.00
25440;DHT22;13365;52.208;5.488;2022-11-18T16:59:40;16.10;92.00
25440;DHT22;13365;52.208;5.488;2022-11-18T17:02:05;15.90;92.10
25440;DHT22;13365;52.208;5.488;2022-11-18T17:04:31;15.80;92.40
25440;DHT22;13365;52.208;5.488;2022-11-18T17:06:59;15.70;92.60
25440;DHT22;13365;52.208;5.488;2022-11-18T17:09:25;15.60;92.60
25440;DHT22;13365;52.208;5.488;2022-11-18T17:11:52;15.40;92.90
25440;DHT22;13365;52.208;5.488;2022-11-18T17:14:18;15.40;93.00
25440;DHT22;13365;52.208;5.488;2022-11-18T17:16:44;15.20;93.20
25440;DHT22;13365;52.208;5.488;2022-11-18T17:19:16;15.10;93.70
25440;DHT22;13365;52.208;5.488;2022-11-18T17:21:42;14.90;94.00
25440;DHT22;13365;52.208;5.488;2022-11-18T17:24:08;14.70;94.40
25440;DHT22;13365;52.208;5.488;2022-11-18T17:26:35;14.50;94.90
25440;DHT22;13365;52.208;5.488;2022-11-18T17:29:00;14.00;95.80
25440;DHT22;13365;52.208;5.488;2022-11-18T17:31:26;13.70;96.70